sensor_id;sensor_type;location;lat;lon;timestamp;P1;durP1;ratioP1;P2;durP2;ratioP2
5833;SDS011;2943;48.012;10.968;2022-10-16T00:00:37;3.07;;;2.87;;
5833;SDS011;2943;48.012;10.968;2022-10-16T00:03:05;4.87;;;3.33;;
5833;SDS011;2943;48.012;10.968;2022-10-16T00:05:33;2.50;;;2.30;;
5833;SDS011;2943;48.012;10.968;2022-10-16T00:08:05;4.57;;;2.50;;
5833;SDS011;2943;48.012;10.968;2022-10-16T00:10:32;2.40;;;2.20;;
5833;SDS011;2943;48.012;10.968;2022-10-16T00:13:00;2.53;;;2.33;;
5833;SDS011;2943;48.012;10.968;2022-10-16T00:15:27;2.73;;;2.53;;
5833;SDS011;2943;48.012;10.968;2022-10-16T00:17:54;3.83;;;2.80;;
5833;SDS011;2943;48.012;10.968;2022-10-16T00:20:21;3.90;;;2.30;;
5833;SDS011;2943;48.012;10.968;2022-10-16T00:22:48;2.70;;;2.50;;
5833;SDS011;2943;48.012;10.968;2022-10-16T00:25:15;3.70;;;2.30;;
5833;SDS011;2943;48.012;10.968;2022-10-16T00:27:42;3.80;;;2.63;;
5833;SDS011;2943;48.012;10.968;2022-10-16T00:30:11;3.00;;;2.70;;
5833;SDS011;2943;48.012;10.968;2022-10-16T00:32:39;3.97;;;2.47;;
5833;SDS011;2943;48.012;10.968;2022-10-16T00:35:06;4.83;;;2.47;;
5833;SDS011;2943;48.012;10.968;2022-10-16T00:37:33;2.53;;;2.33;;
5833;SDS011;2943;48.012;10.968;2022-10-16T00:40:00;3.20;;;2.60;;
5833;SDS011;2943;48.012;10.968;2022-10-16T00:42:27;2.70;;;2.50;;
5833;SDS011;2943;48.012;10.968;2022-10-16T00:44:54;2.67;;;2.47;;
5833;SDS011;2943;48.012;10.968;2022-10-16T00:47:25;2.90;;;2.70;;
5833;SDS011;2943;48.012;10.968;2022-10-16T00:49:58;2.50;;;2.30;;
5833;SDS011;2943;48.012;10.968;2022-10-16T00:52:28;7.47;;;2.60;;
5833;SDS011;2943;48.012;10.968;2022-10-16T00:54:55;3.40;;;2.30;;
5833;SDS011;2943;48.012;10.968;2022-10-16T00:57:23;2.43;;;2.23;;
5833;SDS011;2943;48.012;10.968;2022-10-16T00:59:51;5.43;;;2.80;;
5833;SDS011;2943;48.012;10.968;2022-10-16T01:02:19;2.60;;;2.40;;
5833;SDS011;2943;48.012;10.968;2022-10-16T01:04:49;5.50;;;2.50;;
5833;SDS011;2943;48.012;10.968;2022-10-16T01:07:20;3.07;;;2.50;;
5833;SDS011;2943;48.012;10.968;2022-10-16T01:09:57;3.70;;;2.57;;
5833;SDS011;2943;48.012;10.968;2022-10-16T01:12:35;3.83;;;2.43;;
5833;SDS011;2943;48.012;10.968;2022-10-16T01:15:10;2.90;;;2.70;;
5833;SDS011;2943;48.012;10.968;2022-10-16T01:17:45;2.80;;;2.60;;
5833;SDS011;2943;48.012;10.968;2022-10-16T01:20:20;3.53;;;2.30;;
5833;SDS011;2943;48.012;10.968;2022-10-16T01:22:56;3.33;;;2.40;;
5833;SDS011;2943;48.012;10.968;2022-10-16T01:25:35;2.60;;;2.40;;
5833;SDS011;2943;48.012;10.968;2022-10-16T01:28:15;2.53;;;2.33;;
5833;SDS011;2943;48.012;10.968;2022-10-16T01:30:45;2.70;;;2.47;;
5833;SDS011;2943;48.012;10.968;2022-10-16T01:33:14;4.30;;;2.23;;
5833;SDS011;2943;48.012;10.968;2022-10-16T01:35:46;3.33;;;2.27;;
5833;SDS011;2943;48.012;10.968;2022-10-16T01:38:21;2.10;;;2.00;;
5833;SDS011;2943;48.012;10.968;2022-10-16T01:40:56;2.17;;;2.07;;
5833;SDS011;2943;48.012;10.968;2022-10-16T01:43:28;2.67;;;2.43;;
5833;SDS011;2943;48.012;10.968;2022-10-16T01:45:59;3.20;;;2.53;;
5833;SDS011;2943;48.012;10.968;2022-10-16T01:48:27;13.20;;;2.40;;
5833;SDS011;2943;48.012;10.968;2022-10-16T01:51:02;3.33;;;2.47;;
5833;SDS011;2943;48.012;10.968;2022-10-16T01:53:32;2.50;;;2.30;;
5833;SDS011;2943;48.012;10.968;2022-10-16T01:55:59;3.87;;;2.37;;
5833;SDS011;2943;48.012;10.968;2022-10-16T01:58:30;2.60;;;2.20;;
5833;SDS011;2943;48.012;10.968;2022-10-16T02:01:01;2.10;;;2.00;;
5833;SDS011;2943;48.012;10.968;2022-10-16T02:03:30;2.80;;;2.57;;
5833;SDS011;2943;48.012;10.968;2022-10-16T02:05:59;4.40;;;2.10;;
5833;SDS011;2943;48.012;10.968;2022-10-16T02:08:27;4.07;;;2.83;;
5833;SDS011;2943;48.012;10.968;2022-10-16T02:10:56;3.77;;;2.33;;
5833;SDS011;2943;48.012;10.968;2022-10-16T02:13:27;2.40;;;2.10;;
5833;SDS011;2943;48.012;10.968;2022-10-16T02:15:59;2.80;;;2.60;;
5833;SDS011;2943;48.012;10.968;2022-10-16T02:18:26;3.40;;;2.40;;
5833;SDS011;2943;48.012;10.968;2022-10-16T02:20:55;2.37;;;2.17;;
5833;SDS011;2943;48.012;10.968;2022-10-16T02:23:27;2.50;;;2.30;;
5833;SDS011;2943;48.012;10.968;2022-10-16T02:26:00;4.93;;;2.57;;
5833;SDS011;2943;48.012;10.968;2022-10-16T02:28:34;2.50;;;2.30;;
5833;SDS011;2943;48.012;10.968;2022-10-16T02:31:06;2.47;;;2.27;;
5833;SDS011;2943;48.012;10.968;2022-10-16T02:33:37;3.73;;;2.40;;
5833;SDS011;2943;48.012;10.968;2022-10-16T02:36:06;2.43;;;2.03;;
5833;SDS011;2943;48.012;10.968;2022-10-16T02:38:34;2.63;;;2.13;;
5833;SDS011;2943;48.012;10.968;2022-10-16T02:41:02;2.37;;;2.13;;
5833;SDS011;2943;48.012;10.968;2022-10-16T02:43:30;4.43;;;2.70;;
5833;SDS011;2943;48.012;10.968;2022-10-16T02:45:59;2.07;;;1.97;;
5833;SDS011;2943;48.012;10.968;2022-10-16T02:48:27;7.53;;;2.23;;
5833;SDS011;2943;48.012;10.968;2022-10-16T02:50:54;3.30;;;2.10;;
5833;SDS011;2943;48.012;10.968;2022-10-16T02:53:22;2.80;;;2.00;;
5833;SDS011;2943;48.012;10.968;2022-10-16T02:55:49;2.97;;;2.20;;
5833;SDS011;2943;48.012;10.968;2022-10-16T02:58:15;2.30;;;2.20;;
5833;SDS011;2943;48.012;10.968;2022-10-16T03:00:42;6.23;;;2.10;;
5833;SDS011;2943;48.012;10.968;2022-10-16T03:03:12;4.80;;;2.50;;
5833;SDS011;2943;48.012;10.968;2022-10-16T03:05:39;2.30;;;2.10;;
5833;SDS011;2943;48.012;10.968;2022-10-16T03:08:07;3.40;;;2.30;;
5833;SDS011;2943;48.012;10.968;2022-10-16T03:10:35;2.30;;;2.10;;
5833;SDS011;2943;48.012;10.968;2022-10-16T03:13:02;9.10;;;2.00;;
5833;SDS011;2943;48.012;10.968;2022-10-16T03:15:29;3.73;;;2.30;;
5833;SDS011;2943;48.012;10.968;2022-10-16T03:17:57;2.30;;;2.10;;
5833;SDS011;2943;48.012;10.968;2022-10-16T03:20:25;6.07;;;2.30;;
5833;SDS011;2943;48.012;10.968;2022-10-16T03:22:52;4.10;;;3.00;;
5833;SDS011;2943;48.012;10.968;2022-10-16T03:25:19;2.57;;;2.37;;
5833;SDS011;2943;48.012;10.968;2022-10-16T03:27:46;3.37;;;1.93;;
5833;SDS011;2943;48.012;10.968;2022-10-16T03:30:13;4.43;;;2.43;;
5833;SDS011;2943;48.012;10.968;2022-10-16T03:32:41;3.57;;;2.00;;
5833;SDS011;2943;48.012;10.968;2022-10-16T03:35:09;5.83;;;2.00;;
5833;SDS011;2943;48.012;10.968;2022-10-16T03:37:39;4.17;;;2.37;;
5833;SDS011;2943;48.012;10.968;2022-10-16T03:40:07;4.93;;;2.63;;
5833;SDS011;2943;48.012;10.968;2022-10-16T03:42:39;2.30;;;2.10;;
5833;SDS011;2943;48.012;10.968;2022-10-16T03:45:06;2.60;;;2.30;;
5833;SDS011;2943;48.012;10.968;2022-10-16T03:47:33;2.10;;;2.00;;
5833;SDS011;2943;48.012;10.968;2022-10-16T03:50:01;3.70;;;2.23;;
5833;SDS011;2943;48.012;10.968;2022-10-16T03:52:28;2.07;;;1.97;;
5833;SDS011;2943;48.012;10.968;2022-10-16T03:54:56;5.57;;;2.30;;
5833;SDS011;2943;48.012;10.968;2022-10-16T03:57:23;2.70;;;2.43;;
5833;SDS011;2943;48.012;10.968;2022-10-16T03:59:50;2.27;;;2.00;;
5833;SDS011;2943;48.012;10.968;2022-10-16T04:02:17;3.43;;;2.47;;
5833;SDS011;2943;48.012;10.968;2022-10-16T04:04:44;3.10;;;1.93;;
5833;SDS011;2943;48.012;10.968;2022-10-16T04:07:10;2.33;;;2.10;;
5833;SDS011;2943;48.012;10.968;2022-10-16T04:09:40;2.13;;;1.97;;
5833;SDS011;2943;48.012;10.968;2022-10-16T04:12:09;3.03;;;1.87;;
5833;SDS011;2943;48.012;10.968;2022-10-16T04:14:36;2.00;;;1.80;;
5833;SDS011;2943;48.012;10.968;2022-10-16T04:17:03;3.83;;;2.10;;
5833;SDS011;2943;48.012;10.968;2022-10-16T04:19:30;3.13;;;2.20;;
5833;SDS011;2943;48.012;10.968;2022-10-16T04:21:57;4.13;;;2.47;;
5833;SDS011;2943;48.012;10.968;2022-10-16T04:24:24;2.63;;;2.20;;
5833;SDS011;2943;48.012;10.968;2022-10-16T04:26:51;1.90;;;1.80;;
5833;SDS011;2943;48.012;10.968;2022-10-16T04:29:19;2.17;;;2.03;;
5833;SDS011;2943;48.012;10.968;2022-10-16T04:31:46;2.00;;;1.90;;
5833;SDS011;2943;48.012;10.968;2022-10-16T04:34:13;4.30;;;2.40;;
5833;SDS011;2943;48.012;10.968;2022-10-16T04:36:40;2.10;;;1.90;;
5833;SDS011;2943;48.012;10.968;2022-10-16T04:39:09;3.27;;;2.00;;
5833;SDS011;2943;48.012;10.968;2022-10-16T04:41:36;4.60;;;2.40;;
5833;SDS011;2943;48.012;10.968;2022-10-16T04:44:03;1.93;;;1.83;;
5833;SDS011;2943;48.012;10.968;2022-10-16T04:46:31;8.70;;;2.57;;
5833;SDS011;2943;48.012;10.968;2022-10-16T04:48:58;2.53;;;2.00;;
5833;SDS011;2943;48.012;10.968;2022-10-16T04:51:25;2.10;;;2.00;;
5833;SDS011;2943;48.012;10.968;2022-10-16T04:53:52;2.37;;;1.90;;
5833;SDS011;2943;48.012;10.968;2022-10-16T04:56:19;3.20;;;2.20;;
5833;SDS011;2943;48.012;10.968;2022-10-16T04:58:47;2.53;;;2.00;;
5833;SDS011;2943;48.012;10.968;2022-10-16T05:01:14;3.57;;;2.10;;
5833;SDS011;2943;48.012;10.968;2022-10-16T05:03:42;2.70;;;2.27;;
5833;SDS011;2943;48.012;10.968;2022-10-16T05:06:09;2.60;;;2.10;;
5833;SDS011;2943;48.012;10.968;2022-10-16T05:08:36;3.20;;;2.90;;
5833;SDS011;2943;48.012;10.968;2022-10-16T05:11:03;2.90;;;2.60;;
5833;SDS011;2943;48.012;10.968;2022-10-16T05:13:30;2.77;;;2.40;;
5833;SDS011;2943;48.012;10.968;2022-10-16T05:15:57;2.73;;;2.50;;
5833;SDS011;2943;48.012;10.968;2022-10-16T05:18:24;2.20;;;2.10;;
5833;SDS011;2943;48.012;10.968;2022-10-16T05:20:52;4.03;;;2.30;;
5833;SDS011;2943;48.012;10.968;2022-10-16T05:23:19;2.70;;;2.47;;
5833;SDS011;2943;48.012;10.968;2022-10-16T05:25:51;2.97;;;2.40;;
5833;SDS011;2943;48.012;10.968;2022-10-16T05:28:19;2.73;;;2.53;;
5833;SDS011;2943;48.012;10.968;2022-10-16T05:30:46;2.40;;;2.20;;
5833;SDS011;2943;48.012;10.968;2022-10-16T05:33:13;2.30;;;2.10;;
5833;SDS011;2943;48.012;10.968;2022-10-16T05:35:40;3.40;;;1.90;;
5833;SDS011;2943;48.012;10.968;2022-10-16T05:38:08;4.07;;;2.70;;
5833;SDS011;2943;48.012;10.968;2022-10-16T05:40:35;2.67;;;2.00;;
5833;SDS011;2943;48.012;10.968;2022-10-16T05:43:02;2.70;;;2.00;;
5833;SDS011;2943;48.012;10.968;2022-10-16T05:45:29;2.30;;;2.10;;
5833;SDS011;2943;48.012;10.968;2022-10-16T05:47:56;6.83;;;2.33;;
5833;SDS011;2943;48.012;10.968;2022-10-16T05:50:23;2.40;;;2.20;;
5833;SDS011;2943;48.012;10.968;2022-10-16T05:52:50;3.73;;;3.27;;
5833;SDS011;2943;48.012;10.968;2022-10-16T05:55:18;2.97;;;2.77;;
5833;SDS011;2943;48.012;10.968;2022-10-16T05:57:45;3.43;;;3.13;;
5833;SDS011;2943;48.012;10.968;2022-10-16T06:00:12;3.70;;;3.27;;
5833;SDS011;2943;48.012;10.968;2022-10-16T06:02:39;3.90;;;3.50;;
5833;SDS011;2943;48.012;10.968;2022-10-16T06:05:06;3.17;;;2.90;;
5833;SDS011;2943;48.012;10.968;2022-10-16T06:07:34;2.80;;;2.60;;
5833;SDS011;2943;48.012;10.968;2022-10-16T06:10:01;2.70;;;2.50;;
5833;SDS011;2943;48.012;10.968;2022-10-16T06:12:31;5.70;;;3.30;;
5833;SDS011;2943;48.012;10.968;2022-10-16T06:14:58;3.83;;;3.30;;
5833;SDS011;2943;48.012;10.968;2022-10-16T06:17:24;4.97;;;4.40;;
5833;SDS011;2943;48.012;10.968;2022-10-16T06:19:51;5.40;;;4.13;;
5833;SDS011;2943;48.012;10.968;2022-10-16T06:22:18;6.70;;;5.10;;
5833;SDS011;2943;48.012;10.968;2022-10-16T06:24:45;7.37;;;5.90;;
5833;SDS011;2943;48.012;10.968;2022-10-16T06:27:12;8.73;;;6.10;;
5833;SDS011;2943;48.012;10.968;2022-10-16T06:29:40;11.60;;;5.00;;
5833;SDS011;2943;48.012;10.968;2022-10-16T06:32:08;12.63;;;5.30;;
5833;SDS011;2943;48.012;10.968;2022-10-16T06:34:34;9.77;;;6.37;;
5833;SDS011;2943;48.012;10.968;2022-10-16T06:37:01;17.77;;;10.80;;
5833;SDS011;2943;48.012;10.968;2022-10-16T06:39:28;16.70;;;11.27;;
5833;SDS011;2943;48.012;10.968;2022-10-16T06:41:55;11.37;;;8.47;;
5833;SDS011;2943;48.012;10.968;2022-10-16T06:44:22;7.97;;;5.90;;
5833;SDS011;2943;48.012;10.968;2022-10-16T06:46:50;3.83;;;3.43;;
5833;SDS011;2943;48.012;10.968;2022-10-16T06:49:17;3.83;;;3.47;;
5833;SDS011;2943;48.012;10.968;2022-10-16T06:51:47;9.03;;;4.23;;
5833;SDS011;2943;48.012;10.968;2022-10-16T06:54:14;6.43;;;4.93;;
5833;SDS011;2943;48.012;10.968;2022-10-16T06:56:42;9.57;;;5.50;;
5833;SDS011;2943;48.012;10.968;2022-10-16T06:59:09;9.83;;;4.57;;
5833;SDS011;2943;48.012;10.968;2022-10-16T07:01:36;10.07;;;5.73;;
5833;SDS011;2943;48.012;10.968;2022-10-16T07:04:04;9.73;;;7.77;;
5833;SDS011;2943;48.012;10.968;2022-10-16T07:06:32;10.93;;;6.60;;
5833;SDS011;2943;48.012;10.968;2022-10-16T07:09:00;5.90;;;5.20;;
5833;SDS011;2943;48.012;10.968;2022-10-16T07:11:29;4.50;;;4.10;;
5833;SDS011;2943;48.012;10.968;2022-10-16T07:13:55;4.63;;;3.60;;
5833;SDS011;2943;48.012;10.968;2022-10-16T07:16:23;6.40;;;4.13;;
5833;SDS011;2943;48.012;10.968;2022-10-16T07:18:51;4.30;;;3.43;;
5833;SDS011;2943;48.012;10.968;2022-10-16T07:21:24;3.63;;;3.33;;
5833;SDS011;2943;48.012;10.968;2022-10-16T07:23:53;5.20;;;4.70;;
5833;SDS011;2943;48.012;10.968;2022-10-16T07:26:21;7.53;;;5.90;;
5833;SDS011;2943;48.012;10.968;2022-10-16T07:28:48;4.00;;;3.60;;
5833;SDS011;2943;48.012;10.968;2022-10-16T07:31:15;3.23;;;3.03;;
5833;SDS011;2943;48.012;10.968;2022-10-16T07:33:44;4.93;;;3.80;;
5833;SDS011;2943;48.012;10.968;2022-10-16T07:36:12;3.30;;;3.00;;
5833;SDS011;2943;48.012;10.968;2022-10-16T07:38:41;3.93;;;3.53;;
5833;SDS011;2943;48.012;10.968;2022-10-16T07:41:09;3.00;;;2.80;;
5833;SDS011;2943;48.012;10.968;2022-10-16T07:43:37;2.80;;;2.60;;
5833;SDS011;2943;48.012;10.968;2022-10-16T07:46:04;2.87;;;2.67;;
5833;SDS011;2943;48.012;10.968;2022-10-16T07:48:32;4.80;;;4.40;;
5833;SDS011;2943;48.012;10.968;2022-10-16T07:51:00;4.37;;;3.97;;
5833;SDS011;2943;48.012;10.968;2022-10-16T07:53:28;4.10;;;3.70;;
5833;SDS011;2943;48.012;10.968;2022-10-16T07:55:58;4.03;;;3.30;;
5833;SDS011;2943;48.012;10.968;2022-10-16T07:58:25;5.83;;;3.07;;
5833;SDS011;2943;48.012;10.968;2022-10-16T08:00:53;5.00;;;2.90;;
5833;SDS011;2943;48.012;10.968;2022-10-16T08:03:19;5.20;;;4.70;;
5833;SDS011;2943;48.012;10.968;2022-10-16T08:05:46;6.63;;;5.50;;
5833;SDS011;2943;48.012;10.968;2022-10-16T08:08:13;8.90;;;5.80;;
5833;SDS011;2943;48.012;10.968;2022-10-16T08:10:41;8.80;;;4.20;;
5833;SDS011;2943;48.012;10.968;2022-10-16T08:13:10;5.20;;;3.13;;
5833;SDS011;2943;48.012;10.968;2022-10-16T08:15:39;5.00;;;3.70;;
5833;SDS011;2943;48.012;10.968;2022-10-16T08:18:06;6.10;;;3.30;;
5833;SDS011;2943;48.012;10.968;2022-10-16T08:20:33;5.30;;;3.70;;
5833;SDS011;2943;48.012;10.968;2022-10-16T08:23:00;4.07;;;3.10;;
5833;SDS011;2943;48.012;10.968;2022-10-16T08:25:28;4.03;;;3.20;;
5833;SDS011;2943;48.012;10.968;2022-10-16T08:27:55;4.23;;;3.13;;
5833;SDS011;2943;48.012;10.968;2022-10-16T08:30:23;3.47;;;3.10;;
5833;SDS011;2943;48.012;10.968;2022-10-16T08:32:50;2.47;;;2.27;;
5833;SDS011;2943;48.012;10.968;2022-10-16T08:35:18;3.93;;;2.40;;
5833;SDS011;2943;48.012;10.968;2022-10-16T08:37:44;2.90;;;2.60;;
5833;SDS011;2943;48.012;10.968;2022-10-16T08:40:15;3.20;;;2.90;;
5833;SDS011;2943;48.012;10.968;2022-10-16T08:42:52;4.97;;;2.80;;
5833;SDS011;2943;48.012;10.968;2022-10-16T08:45:33;5.20;;;2.77;;
5833;SDS011;2943;48.012;10.968;2022-10-16T08:48:14;8.63;;;2.10;;
5833;SDS011;2943;48.012;10.968;2022-10-16T08:50:45;4.50;;;2.07;;
5833;SDS011;2943;48.012;10.968;2022-10-16T08:53:15;3.73;;;1.90;;
5833;SDS011;2943;48.012;10.968;2022-10-16T08:55:46;2.23;;;2.13;;
5833;SDS011;2943;48.012;10.968;2022-10-16T08:58:16;4.00;;;2.90;;
5833;SDS011;2943;48.012;10.968;2022-10-16T09:00:47;4.13;;;2.33;;
5833;SDS011;2943;48.012;10.968;2022-10-16T09:03:22;3.90;;;2.37;;
5833;SDS011;2943;48.012;10.968;2022-10-16T09:06:07;8.13;;;1.93;;
5833;SDS011;2943;48.012;10.968;2022-10-16T09:08:56;4.43;;;2.37;;
5833;SDS011;2943;48.012;10.968;2022-10-16T09:11:33;2.30;;;2.20;;
5833;SDS011;2943;48.012;10.968;2022-10-16T09:14:14;2.00;;;1.83;;
5833;SDS011;2943;48.012;10.968;2022-10-16T09:16:53;2.10;;;2.00;;
5833;SDS011;2943;48.012;10.968;2022-10-16T09:19:27;5.30;;;2.10;;
5833;SDS011;2943;48.012;10.968;2022-10-16T09:21:59;4.67;;;2.17;;
5833;SDS011;2943;48.012;10.968;2022-10-16T09:24:29;9.07;;;2.10;;
5833;SDS011;2943;48.012;10.968;2022-10-16T09:26:56;3.83;;;2.00;;
5833;SDS011;2943;48.012;10.968;2022-10-16T09:29:23;2.23;;;2.03;;
5833;SDS011;2943;48.012;10.968;2022-10-16T09:31:50;2.57;;;1.80;;
5833;SDS011;2943;48.012;10.968;2022-10-16T09:34:23;3.90;;;1.73;;
5833;SDS011;2943;48.012;10.968;2022-10-16T09:36:53;2.00;;;1.80;;
5833;SDS011;2943;48.012;10.968;2022-10-16T09:39:22;6.00;;;1.63;;
5833;SDS011;2943;48.012;10.968;2022-10-16T09:41:49;1.70;;;1.60;;
5833;SDS011;2943;48.012;10.968;2022-10-16T09:44:18;1.60;;;1.50;;
5833;SDS011;2943;48.012;10.968;2022-10-16T09:46:47;3.17;;;1.70;;
5833;SDS011;2943;48.012;10.968;2022-10-16T09:49:22;1.67;;;1.57;;
5833;SDS011;2943;48.012;10.968;2022-10-16T09:51:50;1.60;;;1.50;;
5833;SDS011;2943;48.012;10.968;2022-10-16T09:54:29;1.53;;;1.43;;
5833;SDS011;2943;48.012;10.968;2022-10-16T09:57:04;1.83;;;1.73;;
5833;SDS011;2943;48.012;10.968;2022-10-16T09:59:31;6.70;;;2.00;;
5833;SDS011;2943;48.012;10.968;2022-10-16T10:02:01;3.17;;;2.23;;
5833;SDS011;2943;48.012;10.968;2022-10-16T10:04:38;3.23;;;2.27;;
5833;SDS011;2943;48.012;10.968;2022-10-16T10:07:15;3.00;;;2.03;;
5833;SDS011;2943;48.012;10.968;2022-10-16T10:09:45;2.40;;;1.77;;
5833;SDS011;2943;48.012;10.968;2022-10-16T10:12:19;1.63;;;1.53;;
5833;SDS011;2943;48.012;10.968;2022-10-16T10:14:48;1.70;;;1.60;;
5833;SDS011;2943;48.012;10.968;2022-10-16T10:17:17;1.73;;;1.63;;
5833;SDS011;2943;48.012;10.968;2022-10-16T10:19:50;1.63;;;1.53;;
5833;SDS011;2943;48.012;10.968;2022-10-16T10:22:19;2.00;;;1.67;;
5833;SDS011;2943;48.012;10.968;2022-10-16T10:25:12;1.80;;;1.70;;
5833;SDS011;2943;48.012;10.968;2022-10-16T10:27:48;6.10;;;1.80;;
5833;SDS011;2943;48.012;10.968;2022-10-16T10:30:26;4.00;;;1.87;;
5833;SDS011;2943;48.012;10.968;2022-10-16T10:33:04;1.70;;;1.60;;
5833;SDS011;2943;48.012;10.968;2022-10-16T10:35:41;1.70;;;1.60;;
5833;SDS011;2943;48.012;10.968;2022-10-16T10:38:16;1.80;;;1.67;;
5833;SDS011;2943;48.012;10.968;2022-10-16T10:40:52;1.40;;;1.30;;
5833;SDS011;2943;48.012;10.968;2022-10-16T10:43:35;2.80;;;1.53;;
5833;SDS011;2943;48.012;10.968;2022-10-16T10:46:14;3.27;;;1.83;;
5833;SDS011;2943;48.012;10.968;2022-10-16T10:48:52;2.00;;;1.53;;
5833;SDS011;2943;48.012;10.968;2022-10-16T10:51:28;3.73;;;1.83;;
5833;SDS011;2943;48.012;10.968;2022-10-16T10:54:04;2.93;;;1.83;;
5833;SDS011;2943;48.012;10.968;2022-10-16T10:56:41;1.67;;;1.47;;
5833;SDS011;2943;48.012;10.968;2022-10-16T11:02:20;6.33;;;1.60;;
5833;SDS011;2943;48.012;10.968;2022-10-16T11:08:04;1.57;;;1.47;;
5833;SDS011;2943;48.012;10.968;2022-10-16T11:10:40;3.03;;;1.67;;
5833;SDS011;2943;48.012;10.968;2022-10-16T11:13:16;1.60;;;1.50;;
5833;SDS011;2943;48.012;10.968;2022-10-16T11:15:55;1.53;;;1.20;;
5833;SDS011;2943;48.012;10.968;2022-10-16T11:18:27;1.30;;;1.20;;
5833;SDS011;2943;48.012;10.968;2022-10-16T11:21:01;1.50;;;1.40;;
5833;SDS011;2943;48.012;10.968;2022-10-16T11:23:33;4.90;;;1.60;;
5833;SDS011;2943;48.012;10.968;2022-10-16T11:26:08;3.93;;;1.77;;
5833;SDS011;2943;48.012;10.968;2022-10-16T11:28:41;2.90;;;1.50;;
5833;SDS011;2943;48.012;10.968;2022-10-16T11:31:13;1.40;;;1.30;;
5833;SDS011;2943;48.012;10.968;2022-10-16T11:33:45;3.10;;;1.33;;
5833;SDS011;2943;48.012;10.968;2022-10-16T11:36:18;1.50;;;1.37;;
5833;SDS011;2943;48.012;10.968;2022-10-16T11:38:51;3.93;;;1.40;;
5833;SDS011;2943;48.012;10.968;2022-10-16T11:41:24;1.57;;;1.27;;
5833;SDS011;2943;48.012;10.968;2022-10-16T11:44:07;1.23;;;1.13;;
5833;SDS011;2943;48.012;10.968;2022-10-16T11:46:43;2.13;;;1.57;;
5833;SDS011;2943;48.012;10.968;2022-10-16T11:49:18;1.40;;;1.30;;
5833;SDS011;2943;48.012;10.968;2022-10-16T11:51:48;1.47;;;1.10;;
5833;SDS011;2943;48.012;10.968;2022-10-16T11:54:26;1.27;;;1.17;;
5833;SDS011;2943;48.012;10.968;2022-10-16T11:56:59;1.43;;;1.33;;
5833;SDS011;2943;48.012;10.968;2022-10-16T11:59:31;1.30;;;1.20;;
5833;SDS011;2943;48.012;10.968;2022-10-16T12:02:09;5.20;;;1.40;;
5833;SDS011;2943;48.012;10.968;2022-10-16T12:04:58;1.23;;;1.13;;
5833;SDS011;2943;48.012;10.968;2022-10-16T12:07:36;2.13;;;1.67;;
5833;SDS011;2943;48.012;10.968;2022-10-16T12:10:17;1.43;;;1.30;;
5833;SDS011;2943;48.012;10.968;2022-10-16T12:12:46;1.30;;;1.20;;
5833;SDS011;2943;48.012;10.968;2022-10-16T12:15:20;3.50;;;1.27;;
5833;SDS011;2943;48.012;10.968;2022-10-16T12:17:50;1.57;;;1.00;;
5833;SDS011;2943;48.012;10.968;2022-10-16T12:20:28;1.33;;;1.23;;
5833;SDS011;2943;48.012;10.968;2022-10-16T12:22:58;2.23;;;1.30;;
5833;SDS011;2943;48.012;10.968;2022-10-16T12:25:29;1.10;;;1.10;;
5833;SDS011;2943;48.012;10.968;2022-10-16T12:28:01;1.50;;;1.30;;
5833;SDS011;2943;48.012;10.968;2022-10-16T12:30:31;1.30;;;1.20;;
5833;SDS011;2943;48.012;10.968;2022-10-16T12:33:00;4.50;;;1.50;;
5833;SDS011;2943;48.012;10.968;2022-10-16T12:35:30;1.30;;;1.20;;
5833;SDS011;2943;48.012;10.968;2022-10-16T12:38:14;1.50;;;1.40;;
5833;SDS011;2943;48.012;10.968;2022-10-16T12:40:45;1.50;;;1.40;;
5833;SDS011;2943;48.012;10.968;2022-10-16T12:46:22;1.50;;;1.40;;
5833;SDS011;2943;48.012;10.968;2022-10-16T12:49:04;1.50;;;1.40;;
5833;SDS011;2943;48.012;10.968;2022-10-16T12:51:44;3.50;;;1.60;;
5833;SDS011;2943;48.012;10.968;2022-10-16T12:54:12;1.90;;;1.33;;
5833;SDS011;2943;48.012;10.968;2022-10-16T12:56:45;6.10;;;1.87;;
5833;SDS011;2943;48.012;10.968;2022-10-16T12:59:22;2.60;;;1.50;;
5833;SDS011;2943;48.012;10.968;2022-10-16T13:02:01;2.00;;;1.50;;
5833;SDS011;2943;48.012;10.968;2022-10-16T13:04:57;2.57;;;1.40;;
5833;SDS011;2943;48.012;10.968;2022-10-16T13:10:25;2.13;;;1.30;;
5833;SDS011;2943;48.012;10.968;2022-10-16T13:13:04;1.50;;;1.40;;
5833;SDS011;2943;48.012;10.968;2022-10-16T13:16:00;1.20;;;1.10;;
5833;SDS011;2943;48.012;10.968;2022-10-16T13:18:38;1.30;;;1.20;;
5833;SDS011;2943;48.012;10.968;2022-10-16T13:21:17;1.37;;;1.27;;
5833;SDS011;2943;48.012;10.968;2022-10-16T13:23:51;1.90;;;1.40;;
5833;SDS011;2943;48.012;10.968;2022-10-16T13:26:28;2.93;;;1.30;;
5833;SDS011;2943;48.012;10.968;2022-10-16T13:29:04;2.57;;;1.40;;
5833;SDS011;2943;48.012;10.968;2022-10-16T13:31:31;1.43;;;1.33;;
5833;SDS011;2943;48.012;10.968;2022-10-16T13:33:59;2.90;;;1.30;;
5833;SDS011;2943;48.012;10.968;2022-10-16T13:36:27;1.83;;;1.50;;
5833;SDS011;2943;48.012;10.968;2022-10-16T13:39:00;1.33;;;1.20;;
5833;SDS011;2943;48.012;10.968;2022-10-16T13:41:33;1.40;;;1.30;;
5833;SDS011;2943;48.012;10.968;2022-10-16T13:44:00;2.60;;;1.27;;
5833;SDS011;2943;48.012;10.968;2022-10-16T13:46:29;1.60;;;1.50;;
5833;SDS011;2943;48.012;10.968;2022-10-16T13:49:00;1.33;;;1.23;;
5833;SDS011;2943;48.012;10.968;2022-10-16T13:51:29;1.50;;;1.40;;
5833;SDS011;2943;48.012;10.968;2022-10-16T13:53:57;1.30;;;1.20;;
5833;SDS011;2943;48.012;10.968;2022-10-16T13:56:25;1.57;;;1.47;;
5833;SDS011;2943;48.012;10.968;2022-10-16T13:59:00;4.20;;;1.60;;
5833;SDS011;2943;48.012;10.968;2022-10-16T14:01:30;1.40;;;1.30;;
5833;SDS011;2943;48.012;10.968;2022-10-16T14:04:00;2.30;;;1.10;;
5833;SDS011;2943;48.012;10.968;2022-10-16T14:06:30;6.23;;;1.40;;
5833;SDS011;2943;48.012;10.968;2022-10-16T14:08:59;1.33;;;1.23;;
5833;SDS011;2943;48.012;10.968;2022-10-16T14:11:28;1.87;;;1.40;;
5833;SDS011;2943;48.012;10.968;2022-10-16T14:13:56;1.40;;;1.30;;
5833;SDS011;2943;48.012;10.968;2022-10-16T14:16:23;1.63;;;1.40;;
5833;SDS011;2943;48.012;10.968;2022-10-16T14:18:56;1.47;;;1.30;;
5833;SDS011;2943;48.012;10.968;2022-10-16T14:21:25;1.47;;;1.37;;
5833;SDS011;2943;48.012;10.968;2022-10-16T14:23:53;1.93;;;1.70;;
5833;SDS011;2943;48.012;10.968;2022-10-16T14:26:22;1.50;;;1.40;;
5833;SDS011;2943;48.012;10.968;2022-10-16T14:29:01;5.60;;;1.40;;
5833;SDS011;2943;48.012;10.968;2022-10-16T14:31:37;1.77;;;1.40;;
5833;SDS011;2943;48.012;10.968;2022-10-16T14:36:52;1.40;;;1.30;;
5833;SDS011;2943;48.012;10.968;2022-10-16T14:39:20;3.73;;;1.60;;
5833;SDS011;2943;48.012;10.968;2022-10-16T14:41:49;1.50;;;1.40;;
5833;SDS011;2943;48.012;10.968;2022-10-16T14:44:17;1.50;;;1.40;;
5833;SDS011;2943;48.012;10.968;2022-10-16T14:46:45;1.67;;;1.20;;
5833;SDS011;2943;48.012;10.968;2022-10-16T14:49:14;2.43;;;1.40;;
5833;SDS011;2943;48.012;10.968;2022-10-16T14:51:45;1.60;;;1.50;;
5833;SDS011;2943;48.012;10.968;2022-10-16T14:54:13;2.60;;;1.23;;
5833;SDS011;2943;48.012;10.968;2022-10-16T14:56:43;1.30;;;1.20;;
5833;SDS011;2943;48.012;10.968;2022-10-16T14:59:14;1.40;;;1.30;;
5833;SDS011;2943;48.012;10.968;2022-10-16T15:01:44;1.70;;;1.40;;
5833;SDS011;2943;48.012;10.968;2022-10-16T15:04:11;1.53;;;1.43;;
5833;SDS011;2943;48.012;10.968;2022-10-16T15:06:38;1.50;;;1.20;;
5833;SDS011;2943;48.012;10.968;2022-10-16T15:09:07;1.30;;;1.20;;
5833;SDS011;2943;48.012;10.968;2022-10-16T15:11:34;1.30;;;1.13;;
5833;SDS011;2943;48.012;10.968;2022-10-16T15:14:01;1.50;;;1.40;;
5833;SDS011;2943;48.012;10.968;2022-10-16T15:16:28;1.50;;;1.37;;
5833;SDS011;2943;48.012;10.968;2022-10-16T15:18:56;6.53;;;1.37;;
5833;SDS011;2943;48.012;10.968;2022-10-16T15:21:24;1.50;;;1.40;;
5833;SDS011;2943;48.012;10.968;2022-10-16T15:23:53;2.13;;;1.40;;
5833;SDS011;2943;48.012;10.968;2022-10-16T15:26:23;1.37;;;1.27;;
5833;SDS011;2943;48.012;10.968;2022-10-16T15:28:50;2.93;;;1.40;;
5833;SDS011;2943;48.012;10.968;2022-10-16T15:31:17;5.50;;;1.50;;
5833;SDS011;2943;48.012;10.968;2022-10-16T15:33:44;3.67;;;1.37;;